createdAt,value
2023-04-03T00:04:29.358Z,2.63
2023-04-03T00:09:22.747Z,2.45
2023-04-03T00:14:16.148Z,3.25
2023-04-03T00:19:13.266Z,2.47
2023-04-03T00:24:07.741Z,2.97
2023-04-03T00:29:00.190Z,2.97
2023-04-03T00:33:54.368Z,2.83
2023-04-03T00:38:47.508Z,3.85
2023-04-03T00:43:41.937Z,3.58
2023-04-03T00:48:41.942Z,3.10
2023-04-03T00:53:42.151Z,3.20
2023-04-03T00:58:39.573Z,3.15
2023-04-03T01:03:32.926Z,3.08
2023-04-03T01:08:28.895Z,2.92
2023-04-03T01:13:31.276Z,2.30
2023-04-03T01:18:27.623Z,2.40
2023-04-03T01:23:33.433Z,2.60
2023-04-03T01:28:33.855Z,2.20
2023-04-03T01:33:27.349Z,2.40
2023-04-03T01:38:21.775Z,2.30
2023-04-03T01:43:15.215Z,2.60
2023-04-03T01:48:09.696Z,3.20
2023-04-03T01:53:03.999Z,3.03
2023-04-03T01:57:56.880Z,3.28
2023-04-03T02:02:50.905Z,3.55
2023-04-03T02:07:44.184Z,2.50
2023-04-03T02:12:37.142Z,3.08
2023-04-03T02:17:30.424Z,3.60
2023-04-03T02:22:24.171Z,3.53
2023-04-03T02:27:18.693Z,3.67
2023-04-03T02:32:11.825Z,3.83
2023-04-03T02:37:05.669Z,5.10
2023-04-03T02:41:59.306Z,3.53
2023-04-03T02:46:54.946Z,4.20
2023-04-03T02:51:48.157Z,5.22
2023-04-03T02:56:41.108Z,4.10
2023-04-03T03:01:34.084Z,4.25
2023-04-03T03:06:27.848Z,4.53
2023-04-03T03:11:21.439Z,4.68
2023-04-03T03:16:14.997Z,4.95
2023-04-03T03:21:08.894Z,5.38
2023-04-03T03:26:05.443Z,6.65
2023-04-03T03:31:01.806Z,5.83
2023-04-03T03:35:56.131Z,5.88
2023-04-03T03:40:50.613Z,4.80
2023-04-03T03:45:47.900Z,5.55
2023-04-03T03:50:42.036Z,5.53
2023-04-03T03:55:36.403Z,4.68
2023-04-03T04:00:31.181Z,4.75
2023-04-03T04:05:25.359Z,5.47
2023-04-03T04:10:20.117Z,5.18
2023-04-03T04:15:13.993Z,6.18
2023-04-03T04:20:08.122Z,6.50
2023-04-03T04:25:02.904Z,6.28
2023-04-03T04:29:57.056Z,6.47
2023-04-03T04:34:52.147Z,6.95
2023-04-03T04:39:46.114Z,6.60
2023-04-03T04:44:40.407Z,6.65
2023-04-03T04:49:35.588Z,6.43
2023-04-03T04:54:29.358Z,6.72
2023-04-03T04:59:24.314Z,6.30
2023-04-03T05:04:19.720Z,7.28
2023-04-03T05:09:17.626Z,7.25
2023-04-03T05:14:12.445Z,6.80
2023-04-03T05:19:06.107Z,8.00
2023-04-03T05:24:04.111Z,9.00
2023-04-03T05:28:59.628Z,9.13
2023-04-03T05:33:54.293Z,8.43
2023-04-03T05:38:47.768Z,7.53
2023-04-03T05:43:42.327Z,7.60
2023-04-03T05:48:38.447Z,7.00
2023-04-03T05:53:33.990Z,6.80
2023-04-03T05:58:29.807Z,6.90
2023-04-03T06:03:23.973Z,7.47
2023-04-03T06:08:17.086Z,7.43
2023-04-03T06:13:11.975Z,6.78
2023-04-03T06:18:05.426Z,6.57
2023-04-03T06:22:59.430Z,6.55
2023-04-03T06:27:56.854Z,7.05
2023-04-03T06:32:50.040Z,6.53
2023-04-03T06:37:43.428Z,7.38
2023-04-03T06:42:36.144Z,7.07
2023-04-03T06:47:37.284Z,5.75
2023-04-03T06:52:31.635Z,6.75
2023-04-03T06:57:26.518Z,7.78
2023-04-03T07:02:19.996Z,7.75
2023-04-03T07:07:14.225Z,9.32
2023-04-03T07:12:08.367Z,8.65
2023-04-03T07:17:01.745Z,8.25
2023-04-03T07:21:56.215Z,10.35
2023-04-03T07:26:53.560Z,8.80
2023-04-03T07:31:49.058Z,8.98
2023-04-03T07:36:43.437Z,7.93
2023-04-03T07:41:37.470Z,8.18
2023-04-03T07:46:30.942Z,10.00
2023-04-03T07:51:26.576Z,8.95
2023-04-03T07:56:19.711Z,9.13
2023-04-03T08:01:13.632Z,9.73
2023-04-03T08:06:15.351Z,9.90
2023-04-03T08:11:10.387Z,8.93
2023-04-03T08:16:12.446Z,9.73
2023-04-03T08:21:26.707Z,9.02
2023-04-03T08:26:22.770Z,10.90
2023-04-03T08:31:20.486Z,8.23
2023-04-03T08:41:37.727Z,7.88
2023-04-03T08:47:12.951Z,7.85
2023-04-03T08:52:13.059Z,7.85
2023-04-03T08:57:08.347Z,7.00
2023-04-03T09:02:08.693Z,6.40
2023-04-03T09:07:08.668Z,6.85
2023-04-03T09:12:51.576Z,5.47
2023-04-03T09:18:07.401Z,5.20
2023-04-03T09:23:00.598Z,3.92
2023-04-03T09:27:57.947Z,2.35
2023-04-03T09:32:54.966Z,2.20
2023-04-03T09:38:15.759Z,2.50
2023-04-03T09:43:31.690Z,4.05
2023-04-03T09:49:05.177Z,3.05
2023-04-03T09:54:02.346Z,3.50
2023-04-03T09:59:00.740Z,3.40
2023-04-03T10:04:09.102Z,2.80
2023-04-03T10:09:06.495Z,3.25
2023-04-03T10:14:06.933Z,3.35
2023-04-03T10:19:07.128Z,3.45
2023-04-03T10:24:28.321Z,4.05
2023-04-03T10:29:29.329Z,5.10
2023-04-03T10:34:42.304Z,4.40
2023-04-03T10:39:58.961Z,4.38
2023-04-03T10:45:18.479Z,5.22
2023-04-03T10:50:33.493Z,5.65
2023-04-03T10:55:55.835Z,5.18
2023-04-03T11:00:51.678Z,4.47
2023-04-03T11:05:47.825Z,4.90
2023-04-03T11:10:46.918Z,4.95
2023-04-03T11:15:42.421Z,5.55
2023-04-03T11:20:36.611Z,5.32
2023-04-03T11:25:32.478Z,4.47
2023-04-03T11:30:49.637Z,3.92
2023-04-03T11:35:48.259Z,5.43
2023-04-03T11:40:42.431Z,5.33
2023-04-03T11:45:52.640Z,3.58
2023-04-03T11:51:13.855Z,3.13
2023-04-03T11:56:27.398Z,3.25
2023-04-03T12:01:59.799Z,3.33
2023-04-03T12:07:06.130Z,3.30
2023-04-03T12:12:00.851Z,4.03
2023-04-03T12:17:18.038Z,4.63
2023-04-03T12:22:32.655Z,3.85
2023-04-03T12:27:40.920Z,3.20
2023-04-03T12:33:12.028Z,2.80
2023-04-03T12:38:34.551Z,3.05
2023-04-03T12:44:04.289Z,3.50
2023-04-03T12:49:01.007Z,2.45
2023-04-03T12:54:01.816Z,2.40
2023-04-03T12:58:59.665Z,2.20
2023-04-03T13:04:02.397Z,2.53
2023-04-03T13:08:58.700Z,2.70
2023-04-03T13:14:01.298Z,2.80
2023-04-03T13:18:55.363Z,3.20
2023-04-03T13:23:57.393Z,1.85
2023-04-03T13:28:55.161Z,2.60
2023-04-03T13:33:56.962Z,3.13
2023-04-03T13:39:15.802Z,2.30
2023-04-03T13:44:23.955Z,2.42
2023-04-03T13:49:30.296Z,2.95
2023-04-03T13:54:35.713Z,1.70
2023-04-03T13:59:31.856Z,1.73
2023-04-03T14:04:29.670Z,1.38
2023-04-03T14:09:24.408Z,1.80
2023-04-03T14:14:31.801Z,1.30
2023-04-03T14:19:28.503Z,1.40
2023-04-03T14:24:23.028Z,1.40
2023-04-03T14:29:16.136Z,1.42
2023-04-03T14:34:10.586Z,1.80
2023-04-03T14:39:05.388Z,1.73
2023-04-03T14:43:59.286Z,1.50
2023-04-03T14:48:52.303Z,1.40
2023-04-03T14:53:46.355Z,1.30
2023-04-03T14:58:39.465Z,1.60
2023-04-03T15:03:33.394Z,1.48
2023-04-03T15:08:28.569Z,1.63
2023-04-03T15:13:21.615Z,2.00
2023-04-03T15:18:19.186Z,1.20
2023-04-03T15:23:13.948Z,1.30
2023-04-03T15:28:08.248Z,1.60
2023-04-03T15:33:02.619Z,1.98
2023-04-03T15:37:56.282Z,1.50
2023-04-03T15:42:48.841Z,1.27
2023-04-03T15:47:42.134Z,1.98
2023-04-03T15:52:36.225Z,1.50
2023-04-03T16:02:23.199Z,1.65
2023-04-03T16:07:17.560Z,1.55
2023-04-03T16:12:10.968Z,1.73
2023-04-03T16:17:03.869Z,1.45
2023-04-03T16:21:57.538Z,1.38
2023-04-03T16:26:50.839Z,1.30
2023-04-03T16:31:44.062Z,1.88
2023-04-03T16:36:38.558Z,1.23
2023-04-03T16:41:32.638Z,1.75
2023-04-03T16:46:25.849Z,1.65
2023-04-03T16:51:19.351Z,3.05
2023-04-03T16:56:11.983Z,3.88
2023-04-03T17:01:18.511Z,5.55
2023-04-03T17:06:16.955Z,6.70
2023-04-03T17:11:12.135Z,4.32
2023-04-03T17:16:09.503Z,3.33
2023-04-03T17:21:03.470Z,2.05
2023-04-03T17:25:56.742Z,2.05
2023-04-03T17:30:49.858Z,1.80
2023-04-03T17:35:43.789Z,1.90
2023-04-03T17:40:37.363Z,2.72
2023-04-03T17:45:31.573Z,2.72
2023-04-03T17:50:24.740Z,2.25
2023-04-03T17:55:22.469Z,1.60
2023-04-03T18:00:16.484Z,2.13
2023-04-03T18:05:10.609Z,2.50
2023-04-03T18:10:05.512Z,2.65
2023-04-03T18:15:00.382Z,3.67
2023-04-03T18:19:52.954Z,5.00
2023-04-03T18:24:47.781Z,4.20
2023-04-03T18:29:43.301Z,5.50
2023-04-03T18:34:36.392Z,8.23
2023-04-03T18:39:30.283Z,9.15
2023-04-03T18:44:25.864Z,8.00
2023-04-03T18:49:19.064Z,8.93
2023-04-03T18:54:13.259Z,8.70
2023-04-03T18:59:07.422Z,9.45
2023-04-03T19:04:01.225Z,8.68
2023-04-03T19:08:54.510Z,5.18
2023-04-03T19:14:04.420Z,4.03
2023-04-03T19:19:01.634Z,3.15
2023-04-03T19:23:55.754Z,3.42
2023-04-03T19:28:51.386Z,3.05
2023-04-03T19:33:45.306Z,2.45
2023-04-03T19:38:39.833Z,2.75
2023-04-03T19:43:33.860Z,4.63
2023-04-03T19:48:27.608Z,3.63
2023-04-03T19:53:22.287Z,2.90
2023-04-03T19:58:16.146Z,3.25
2023-04-03T20:03:09.655Z,2.92
2023-04-03T20:08:02.580Z,3.67
2023-04-03T20:12:55.864Z,2.95
2023-04-03T20:17:49.120Z,4.57
2023-04-03T20:22:42.387Z,4.13
2023-04-03T20:27:35.351Z,4.25
2023-04-03T20:32:28.705Z,3.70
2023-04-03T20:37:23.382Z,3.83
2023-04-03T20:42:16.158Z,3.97
2023-04-03T20:47:10.917Z,3.45
2023-04-03T20:52:06.210Z,5.30
2023-04-03T20:57:02.460Z,4.30
2023-04-03T21:01:56.937Z,3.65
2023-04-03T21:07:28.042Z,3.97
2023-04-03T21:12:58.479Z,4.55
2023-04-03T21:18:09.605Z,5.68
2023-04-03T21:23:02.340Z,5.40
2023-04-03T21:27:55.620Z,6.22
2023-04-03T21:32:48.525Z,6.20
2023-04-03T21:37:41.801Z,5.78
2023-04-03T21:42:34.909Z,5.50
2023-04-03T21:47:29.052Z,6.43
2023-04-03T21:52:22.862Z,6.32
2023-04-03T21:57:16.709Z,6.95
2023-04-03T22:02:09.863Z,6.05
2023-04-03T22:07:05.417Z,6.65
2023-04-03T22:11:59.067Z,6.07
2023-04-03T22:16:53.609Z,6.07
2023-04-03T22:21:48.070Z,6.47
2023-04-03T22:26:44.717Z,7.30
2023-04-03T22:31:37.519Z,5.65
2023-04-03T22:36:30.817Z,7.43
2023-04-03T22:41:24.528Z,6.20
2023-04-03T22:46:17.086Z,7.32
2023-04-03T22:51:10.864Z,6.78
2023-04-03T22:56:11.566Z,5.68
2023-04-03T23:01:10.583Z,6.40
2023-04-03T23:06:05.959Z,7.13
2023-04-03T23:10:59.481Z,7.72
2023-04-03T23:15:58.907Z,5.70
2023-04-03T23:20:52.409Z,6.93
2023-04-03T23:25:45.254Z,6.25
2023-04-03T23:30:39.059Z,6.30
2023-04-03T23:35:32.365Z,7.20
2023-04-03T23:40:24.800Z,5.88
2023-04-03T23:45:18.231Z,5.50
2023-04-03T23:50:11.779Z,4.85
2023-04-03T23:55:06.938Z,4.97
